sensor_id;sensor_type;location;lat;lon;timestamp;pressure;altitude;pressure_sealevel;temperature;humidity
20037;BME280;10179;42.640;23.312;2024-02-21T00:01:47;94162.66;;;9.01;52.41
20037;BME280;10179;42.640;23.312;2024-02-21T00:04:12;94272.69;;;9.81;52.15
20037;BME280;10179;42.640;23.312;2024-02-21T00:06:37;94315.88;;;10.05;52.07
20037;BME280;10179;42.640;23.312;2024-02-21T00:09:03;94282.00;;;9.84;52.30
20037;BME280;10179;42.640;23.312;2024-02-21T00:11:28;94258.78;;;9.74;52.23
20037;BME280;10179;42.640;23.312;2024-02-21T00:13:54;94250.94;;;9.67;52.04
20037;BME280;10179;42.640;23.312;2024-02-21T00:16:20;94165.09;;;9.16;52.01
20037;BME280;10179;42.640;23.312;2024-02-21T00:18:45;94267.06;;;9.77;51.87
20037;BME280;10179;42.640;23.312;2024-02-21T00:21:11;94301.53;;;10.01;52.06
20037;BME280;10179;42.640;23.312;2024-02-21T00:23:43;94303.38;;;10.00;51.89
20037;BME280;10179;42.640;23.312;2024-02-21T00:26:08;94306.19;;;9.99;51.98
20037;BME280;10179;42.640;23.312;2024-02-21T00:28:34;94279.56;;;9.75;51.67
20037;BME280;10179;42.640;23.312;2024-02-21T00:30:59;94300.94;;;9.92;52.06
20037;BME280;10179;42.640;23.312;2024-02-21T00:33:24;94296.91;;;9.90;52.13
20037;BME280;10179;42.640;23.312;2024-02-21T00:35:50;94301.34;;;9.89;52.21
20037;BME280;10179;42.640;23.312;2024-02-21T00:38:15;94299.94;;;9.87;52.20
20037;BME280;10179;42.640;23.312;2024-02-21T00:40:41;94193.91;;;9.16;52.30
20037;BME280;10179;42.640;23.312;2024-02-21T00:43:06;94215.47;;;9.38;52.28
20037;BME280;10179;42.640;23.312;2024-02-21T00:45:32;94297.91;;;9.89;52.20
20037;BME280;10179;42.640;23.312;2024-02-21T00:47:58;94246.50;;;9.61;52.20
20037;BME280;10179;42.640;23.312;2024-02-21T00:50:23;94290.25;;;9.87;52.36
20037;BME280;10179;42.640;23.312;2024-02-21T00:52:49;94253.38;;;9.62;52.25
20037;BME280;10179;42.640;23.312;2024-02-21T00:55:14;94285.59;;;9.83;52.36
20037;BME280;10179;42.640;23.312;2024-02-21T00:57:40;94280.78;;;9.79;52.43
20037;BME280;10179;42.640;23.312;2024-02-21T01:00:06;94249.75;;;9.50;52.76
20037;BME280;10179;42.640;23.312;2024-02-21T01:02:33;94277.94;;;9.81;52.55
20037;BME280;10179;42.640;23.312;2024-02-21T01:04:58;94045.00;;;8.33;52.27
20037;BME280;10179;42.640;23.312;2024-02-21T01:07:24;94220.31;;;9.28;52.47
20037;BME280;10179;42.640;23.312;2024-02-21T01:09:50;94218.28;;;9.37;52.69
20037;BME280;10179;42.640;23.312;2024-02-21T01:12:16;94266.09;;;9.65;52.71
20037;BME280;10179;42.640;23.312;2024-02-21T01:14:42;94223.94;;;9.33;52.75
20037;BME280;10179;42.640;23.312;2024-02-21T01:17:07;94118.75;;;8.70;52.96
20037;BME280;10179;42.640;23.312;2024-02-21T01:19:32;94292.91;;;9.61;53.35
20037;BME280;10179;42.640;23.312;2024-02-21T01:21:58;94266.47;;;9.62;53.12
20037;BME280;10179;42.640;23.312;2024-02-21T01:24:23;94262.84;;;9.63;53.33
20037;BME280;10179;42.640;23.312;2024-02-21T01:26:49;94258.22;;;9.65;53.35
20037;BME280;10179;42.640;23.312;2024-02-21T01:29:15;94242.09;;;9.55;53.18
20037;BME280;10179;42.640;23.312;2024-02-21T01:31:40;94255.38;;;9.67;53.17
20037;BME280;10179;42.640;23.312;2024-02-21T01:34:06;94258.63;;;9.69;52.85
20037;BME280;10179;42.640;23.312;2024-02-21T01:36:31;94259.41;;;9.69;53.19
20037;BME280;10179;42.640;23.312;2024-02-21T01:38:57;94227.16;;;9.49;53.36
20037;BME280;10179;42.640;23.312;2024-02-21T01:41:22;93902.31;;;7.38;52.88
20037;BME280;10179;42.640;23.312;2024-02-21T01:43:48;94198.16;;;9.37;52.93
20037;BME280;10179;42.640;23.312;2024-02-21T01:46:13;94248.53;;;9.72;52.82
20037;BME280;10179;42.640;23.312;2024-02-21T01:48:39;94247.09;;;9.76;52.61
20037;BME280;10179;42.640;23.312;2024-02-21T01:51:04;94247.69;;;9.78;52.59
20037;BME280;10179;42.640;23.312;2024-02-21T01:53:34;94245.25;;;9.84;52.33
20037;BME280;10179;42.640;23.312;2024-02-21T01:56:00;94221.50;;;9.65;52.05
20037;BME280;10179;42.640;23.312;2024-02-21T01:58:28;94242.81;;;9.89;52.04
20037;BME280;10179;42.640;23.312;2024-02-21T02:00:56;94249.66;;;9.90;51.90
20037;BME280;10179;42.640;23.312;2024-02-21T02:03:22;94210.56;;;9.68;51.64
20037;BME280;10179;42.640;23.312;2024-02-21T02:05:49;94245.66;;;9.94;51.75
20037;BME280;10179;42.640;23.312;2024-02-21T02:08:19;94228.91;;;9.88;51.47
20037;BME280;10179;42.640;23.312;2024-02-21T02:10:45;94194.25;;;9.66;51.28
20037;BME280;10179;42.640;23.312;2024-02-21T02:13:13;94123.13;;;9.29;51.07
20037;BME280;10179;42.640;23.312;2024-02-21T02:15:43;94227.06;;;9.89;50.92
20037;BME280;10179;42.640;23.312;2024-02-21T02:18:10;94242.00;;;10.01;50.95
20037;BME280;10179;42.640;23.312;2024-02-21T02:20:36;94233.91;;;10.03;50.74
20037;BME280;10179;42.640;23.312;2024-02-21T02:25:47;94193.44;;;9.72;50.76
20037;BME280;10179;42.640;23.312;2024-02-21T02:28:17;94235.94;;;10.01;50.54
20037;BME280;10179;42.640;23.312;2024-02-21T02:30:43;94126.34;;;9.31;50.69
20037;BME280;10179;42.640;23.312;2024-02-21T02:33:09;94228.47;;;9.98;50.66
20037;BME280;10179;42.640;23.312;2024-02-21T02:35:35;94179.09;;;9.68;50.78
20037;BME280;10179;42.640;23.312;2024-02-21T02:38:02;94212.53;;;9.93;50.61
20037;BME280;10179;42.640;23.312;2024-02-21T02:40:28;94226.81;;;10.03;50.37
20037;BME280;10179;42.640;23.312;2024-02-21T02:42:53;94149.28;;;9.56;50.32
20037;BME280;10179;42.640;23.312;2024-02-21T02:45:21;94145.66;;;9.57;50.38
20037;BME280;10179;42.640;23.312;2024-02-21T02:47:53;94188.53;;;9.83;50.40
20037;BME280;10179;42.640;23.312;2024-02-21T02:50:19;94221.81;;;10.02;50.31
20037;BME280;10179;42.640;23.312;2024-02-21T02:52:45;94146.91;;;9.48;50.19
20037;BME280;10179;42.640;23.312;2024-02-21T02:55:11;94225.84;;;9.98;50.20
20037;BME280;10179;42.640;23.312;2024-02-21T02:57:36;94226.44;;;10.00;50.22
20037;BME280;10179;42.640;23.312;2024-02-21T03:00:02;94230.09;;;9.99;50.22
20037;BME280;10179;42.640;23.312;2024-02-21T03:02:28;94211.75;;;9.86;50.26
20037;BME280;10179;42.640;23.312;2024-02-21T03:04:53;94037.38;;;8.72;50.13
20037;BME280;10179;42.640;23.312;2024-02-21T03:07:19;94141.44;;;9.43;50.28
20037;BME280;10179;42.640;23.312;2024-02-21T03:09:45;94199.66;;;9.78;50.33
20037;BME280;10179;42.640;23.312;2024-02-21T03:12:10;94181.13;;;9.66;50.35
20037;BME280;10179;42.640;23.312;2024-02-21T03:14:36;94180.34;;;9.66;50.35
20037;BME280;10179;42.640;23.312;2024-02-21T03:17:02;94227.47;;;9.86;50.40
20037;BME280;10179;42.640;23.312;2024-02-21T03:19:28;94236.16;;;9.93;50.40
20037;BME280;10179;42.640;23.312;2024-02-21T03:21:54;94248.06;;;9.95;50.45
20037;BME280;10179;42.640;23.312;2024-02-21T03:24:20;94221.25;;;9.80;50.42
20037;BME280;10179;42.640;23.312;2024-02-21T03:26:46;94258.16;;;9.92;50.36
20037;BME280;10179;42.640;23.312;2024-02-21T03:29:16;94204.75;;;9.66;50.32
20037;BME280;10179;42.640;23.312;2024-02-21T03:31:42;94243.81;;;9.94;50.39
20037;BME280;10179;42.640;23.312;2024-02-21T03:34:07;94248.06;;;9.95;50.30
20037;BME280;10179;42.640;23.312;2024-02-21T03:36:33;94250.50;;;9.97;50.11
20037;BME280;10179;42.640;23.312;2024-02-21T03:38:59;94168.28;;;9.45;50.05
20037;BME280;10179;42.640;23.312;2024-02-21T03:41:24;94192.44;;;9.60;49.90
20037;BME280;10179;42.640;23.312;2024-02-21T03:43:50;94178.75;;;9.45;50.15
20037;BME280;10179;42.640;23.312;2024-02-21T03:46:15;94252.91;;;9.92;50.15
20037;BME280;10179;42.640;23.312;2024-02-21T03:48:41;94263.81;;;9.89;50.01
20037;BME280;10179;42.640;23.312;2024-02-21T03:51:07;94268.03;;;9.90;50.23
20037;BME280;10179;42.640;23.312;2024-02-21T03:53:33;94187.22;;;9.47;50.12
20037;BME280;10179;42.640;23.312;2024-02-21T03:56:01;94257.75;;;9.95;50.22
20037;BME280;10179;42.640;23.312;2024-02-21T03:58:29;94199.13;;;9.56;50.10
20037;BME280;10179;42.640;23.312;2024-02-21T04:00:54;94251.69;;;9.94;50.14
20037;BME280;10179;42.640;23.312;2024-02-21T04:03:20;94256.72;;;9.96;50.06
20037;BME280;10179;42.640;23.312;2024-02-21T04:05:45;94232.81;;;9.46;49.88
20037;BME280;10179;42.640;23.312;2024-02-21T04:08:11;94229.94;;;9.74;50.00
20037;BME280;10179;42.640;23.312;2024-02-21T04:10:36;94242.03;;;9.82;50.03
20037;BME280;10179;42.640;23.312;2024-02-21T04:13:02;94251.69;;;9.94;50.01
20037;BME280;10179;42.640;23.312;2024-02-21T04:15:28;94234.38;;;9.80;50.10
20037;BME280;10179;42.640;23.312;2024-02-21T04:17:53;94210.56;;;9.68;50.14
20037;BME280;10179;42.640;23.312;2024-02-21T04:20:19;94252.50;;;9.95;50.05
20037;BME280;10179;42.640;23.312;2024-02-21T04:22:44;94256.56;;;9.91;50.33
20037;BME280;10179;42.640;23.312;2024-02-21T04:25:12;94245.25;;;9.84;50.38
20037;BME280;10179;42.640;23.312;2024-02-21T04:27:38;94234.78;;;9.70;50.61
20037;BME280;10179;42.640;23.312;2024-02-21T04:30:04;94254.56;;;9.79;50.76
20037;BME280;10179;42.640;23.312;2024-02-21T04:32:30;94256.56;;;9.77;50.70
20037;BME280;10179;42.640;23.312;2024-02-21T04:34:55;94123.97;;;8.83;50.95
20037;BME280;10179;42.640;23.312;2024-02-21T04:37:21;94234.41;;;9.53;51.21
20037;BME280;10179;42.640;23.312;2024-02-21T04:39:47;94257.78;;;9.62;51.25
20037;BME280;10179;42.640;23.312;2024-02-21T04:42:13;94254.75;;;9.58;51.24
20037;BME280;10179;42.640;23.312;2024-02-21T04:44:39;94257.81;;;9.55;51.35
20037;BME280;10179;42.640;23.312;2024-02-21T04:47:04;94256.59;;;9.51;51.35
20037;BME280;10179;42.640;23.312;2024-02-21T04:49:30;94261.66;;;9.46;51.68
20037;BME280;10179;42.640;23.312;2024-02-21T04:51:56;94206.63;;;9.13;51.67
20037;BME280;10179;42.640;23.312;2024-02-21T04:54:21;94257.81;;;9.48;51.62
20037;BME280;10179;42.640;23.312;2024-02-21T04:56:46;94261.81;;;9.51;51.55
20037;BME280;10179;42.640;23.312;2024-02-21T04:59:12;94237.66;;;9.42;51.44
20037;BME280;10179;42.640;23.312;2024-02-21T05:01:37;94216.69;;;9.29;51.24
20037;BME280;10179;42.640;23.312;2024-02-21T05:04:03;94188.06;;;9.14;51.25
20037;BME280;10179;42.640;23.312;2024-02-21T05:06:29;94254.97;;;9.50;51.30
20037;BME280;10179;42.640;23.312;2024-02-21T05:08:55;94247.34;;;9.42;51.26
20037;BME280;10179;42.640;23.312;2024-02-21T05:11:21;94262.25;;;9.48;51.18
20037;BME280;10179;42.640;23.312;2024-02-21T05:13:47;94273.94;;;9.45;51.18
20037;BME280;10179;42.640;23.312;2024-02-21T05:16:12;94252.75;;;9.33;51.05
20037;BME280;10179;42.640;23.312;2024-02-21T05:18:38;94266.69;;;9.41;51.31
20037;BME280;10179;42.640;23.312;2024-02-21T05:21:03;94269.50;;;9.39;51.39
20037;BME280;10179;42.640;23.312;2024-02-21T05:23:29;94198.34;;;8.89;51.45
20037;BME280;10179;42.640;23.312;2024-02-21T05:25:55;94256.38;;;9.19;51.34
20037;BME280;10179;42.640;23.312;2024-02-21T05:28:20;94275.75;;;9.31;51.13
20037;BME280;10179;42.640;23.312;2024-02-21T05:30:46;94268.09;;;9.30;51.09
20037;BME280;10179;42.640;23.312;2024-02-21T05:33:11;93948.28;;;7.19;51.02
20037;BME280;10179;42.640;23.312;2024-02-21T05:35:38;94225.13;;;8.98;51.06
20037;BME280;10179;42.640;23.312;2024-02-21T05:38:03;94259.00;;;9.19;51.03
20037;BME280;10179;42.640;23.312;2024-02-21T05:40:36;94279.19;;;9.25;50.75
20037;BME280;10179;42.640;23.312;2024-02-21T05:43:02;94277.59;;;9.38;50.98
20037;BME280;10179;42.640;23.312;2024-02-21T05:45:27;94262.25;;;9.35;51.02
20037;BME280;10179;42.640;23.312;2024-02-21T05:47:53;94215.06;;;9.08;50.84
20037;BME280;10179;42.640;23.312;2024-02-21T05:50:18;94280.41;;;9.56;50.93
20037;BME280;10179;42.640;23.312;2024-02-21T05:52:44;94271.13;;;9.60;50.69
20037;BME280;10179;42.640;23.312;2024-02-21T05:55:10;94281.19;;;9.63;50.46
20037;BME280;10179;42.640;23.312;2024-02-21T05:57:35;94289.25;;;9.68;50.58
20037;BME280;10179;42.640;23.312;2024-02-21T06:00:04;94290.28;;;9.74;50.52
20037;BME280;10179;42.640;23.312;2024-02-21T06:02:30;94227.16;;;9.36;50.06
20037;BME280;10179;42.640;23.312;2024-02-21T06:04:55;94211.25;;;9.30;49.99
20037;BME280;10179;42.640;23.312;2024-02-21T06:07:21;94286.03;;;9.79;49.77
20037;BME280;10179;42.640;23.312;2024-02-21T06:09:47;94190.69;;;9.14;49.81
20037;BME280;10179;42.640;23.312;2024-02-21T06:12:12;94295.28;;;9.89;49.68
20037;BME280;10179;42.640;23.312;2024-02-21T06:14:37;94244.66;;;9.62;49.72
20037;BME280;10179;42.640;23.312;2024-02-21T06:17:03;94294.06;;;10.11;49.44
20037;BME280;10179;42.640;23.312;2024-02-21T06:19:29;94298.84;;;10.21;49.11
20037;BME280;10179;42.640;23.312;2024-02-21T06:21:54;94193.63;;;9.71;48.58
20037;BME280;10179;42.640;23.312;2024-02-21T06:24:19;94311.28;;;10.65;48.34
20037;BME280;10179;42.640;23.312;2024-02-21T06:26:45;94258.38;;;10.55;48.14
20037;BME280;10179;42.640;23.312;2024-02-21T06:29:11;94302.59;;;11.03;47.66
20037;BME280;10179;42.640;23.312;2024-02-21T06:31:38;94319.50;;;11.20;47.20
20037;BME280;10179;42.640;23.312;2024-02-21T06:34:04;94310.50;;;11.35;46.65
20037;BME280;10179;42.640;23.312;2024-02-21T06:36:29;94308.78;;;11.47;46.22
20037;BME280;10179;42.640;23.312;2024-02-21T06:38:55;94304.28;;;11.54;46.22
20037;BME280;10179;42.640;23.312;2024-02-21T06:41:20;94324.19;;;11.68;45.82
20037;BME280;10179;42.640;23.312;2024-02-21T06:43:46;94269.56;;;11.45;46.06
20037;BME280;10179;42.640;23.312;2024-02-21T06:46:22;94327.09;;;11.92;45.49
20037;BME280;10179;42.640;23.312;2024-02-21T06:48:48;94192.22;;;11.03;45.09
20037;BME280;10179;42.640;23.312;2024-02-21T06:51:14;94331.06;;;12.01;44.98
20037;BME280;10179;42.640;23.312;2024-02-21T06:53:39;94306.69;;;11.87;44.79
20037;BME280;10179;42.640;23.312;2024-02-21T06:56:05;94276.25;;;11.66;44.80
20037;BME280;10179;42.640;23.312;2024-02-21T06:58:31;94335.19;;;12.15;44.54
20037;BME280;10179;42.640;23.312;2024-02-21T07:00:56;94340.03;;;12.18;44.62
20037;BME280;10179;42.640;23.312;2024-02-21T07:03:22;94295.38;;;12.05;44.53
20037;BME280;10179;42.640;23.312;2024-02-21T07:05:49;94258.50;;;11.87;44.25
20037;BME280;10179;42.640;23.312;2024-02-21T07:08:15;94331.97;;;12.32;44.15
20037;BME280;10179;42.640;23.312;2024-02-21T07:10:40;94290.41;;;12.15;44.32
20037;BME280;10179;42.640;23.312;2024-02-21T07:13:05;94326.72;;;12.50;44.57
20037;BME280;10179;42.640;23.312;2024-02-21T07:15:31;94333.31;;;12.59;43.88
20037;BME280;10179;42.640;23.312;2024-02-21T07:17:57;94316.19;;;12.50;43.44
20037;BME280;10179;42.640;23.312;2024-02-21T07:20:22;94343.47;;;12.56;43.71
20037;BME280;10179;42.640;23.312;2024-02-21T07:22:48;94341.81;;;12.43;43.97
20037;BME280;10179;42.640;23.312;2024-02-21T07:25:13;94328.03;;;12.23;44.23
20037;BME280;10179;42.640;23.312;2024-02-21T07:27:38;94280.50;;;11.92;44.61
20037;BME280;10179;42.640;23.312;2024-02-21T07:30:05;94345.28;;;12.18;44.44
20037;BME280;10179;42.640;23.312;2024-02-21T07:32:31;94333.91;;;12.00;44.94
20037;BME280;10179;42.640;23.312;2024-02-21T07:34:56;94345.19;;;12.07;45.04
20037;BME280;10179;42.640;23.312;2024-02-21T07:37:21;94344.00;;;12.03;45.12
20037;BME280;10179;42.640;23.312;2024-02-21T07:39:47;94332.78;;;11.89;45.28
20037;BME280;10179;42.640;23.312;2024-02-21T07:42:12;94352.38;;;11.93;45.40
20037;BME280;10179;42.640;23.312;2024-02-21T07:44:38;94299.78;;;11.61;45.56
20037;BME280;10179;42.640;23.312;2024-02-21T07:47:03;94278.84;;;11.48;45.30
20037;BME280;10179;42.640;23.312;2024-02-21T07:49:29;94343.97;;;11.84;45.66
20037;BME280;10179;42.640;23.312;2024-02-21T07:51:54;94345.38;;;11.87;45.71
20037;BME280;10179;42.640;23.312;2024-02-21T07:54:19;94338.03;;;11.89;45.84
20037;BME280;10179;42.640;23.312;2024-02-21T07:56:45;94253.06;;;11.32;45.83
20037;BME280;10179;42.640;23.312;2024-02-21T07:59:10;94209.53;;;11.11;45.70
20037;BME280;10179;42.640;23.312;2024-02-21T08:01:36;94315.63;;;11.80;45.92
20037;BME280;10179;42.640;23.312;2024-02-21T08:04:01;94341.41;;;11.96;45.79
20037;BME280;10179;42.640;23.312;2024-02-21T08:06:27;94333.69;;;12.01;45.83
20037;BME280;10179;42.640;23.312;2024-02-21T08:08:53;94337.06;;;12.08;45.44
20037;BME280;10179;42.640;23.312;2024-02-21T08:11:18;94333.34;;;12.16;45.41
20037;BME280;10179;42.640;23.312;2024-02-21T08:13:44;94278.97;;;11.85;45.19
20037;BME280;10179;42.640;23.312;2024-02-21T08:16:09;94298.31;;;11.97;45.01
20037;BME280;10179;42.640;23.312;2024-02-21T08:18:34;94335.81;;;12.36;45.25
20037;BME280;10179;42.640;23.312;2024-02-21T08:21:03;94335.06;;;12.47;44.91
20037;BME280;10179;42.640;23.312;2024-02-21T08:23:29;94328.94;;;12.53;44.64
20037;BME280;10179;42.640;23.312;2024-02-21T08:25:54;94331.84;;;12.63;44.11
20037;BME280;10179;42.640;23.312;2024-02-21T08:28:21;94331.56;;;12.72;44.05
20037;BME280;10179;42.640;23.312;2024-02-21T08:30:46;94276.38;;;12.40;43.72
20037;BME280;10179;42.640;23.312;2024-02-21T08:33:15;94256.53;;;12.37;43.70
20037;BME280;10179;42.640;23.312;2024-02-21T08:35:42;94329.97;;;13.01;43.63
20037;BME280;10179;42.640;23.312;2024-02-21T08:38:07;94259.34;;;12.73;42.94
20037;BME280;10179;42.640;23.312;2024-02-21T08:40:33;94330.91;;;13.25;41.93
20037;BME280;10179;42.640;23.312;2024-02-21T08:43:00;94247.13;;;12.78;41.30
20037;BME280;10179;42.640;23.312;2024-02-21T08:45:26;94324.88;;;13.36;40.61
20037;BME280;10179;42.640;23.312;2024-02-21T08:47:51;94315.91;;;13.37;40.38
20037;BME280;10179;42.640;23.312;2024-02-21T08:50:17;94326.88;;;13.52;40.11
20037;BME280;10179;42.640;23.312;2024-02-21T08:52:42;94329.63;;;13.57;39.85
20037;BME280;10179;42.640;23.312;2024-02-21T08:55:07;94285.63;;;13.28;40.17
20037;BME280;10179;42.640;23.312;2024-02-21T08:57:33;94325.28;;;13.51;40.14
20037;BME280;10179;42.640;23.312;2024-02-21T09:00:04;94056.28;;;11.84;40.09
20037;BME280;10179;42.640;23.312;2024-02-21T09:02:39;94334.72;;;13.71;40.29
20037;BME280;10179;42.640;23.312;2024-02-21T09:05:05;94333.47;;;13.73;40.00
20037;BME280;10179;42.640;23.312;2024-02-21T09:07:31;94266.16;;;13.10;40.15
20037;BME280;10179;42.640;23.312;2024-02-21T09:09:56;94336.53;;;13.58;40.29
20037;BME280;10179;42.640;23.312;2024-02-21T09:12:21;94238.63;;;13.06;40.56
20037;BME280;10179;42.640;23.312;2024-02-21T09:14:47;94330.31;;;13.65;40.36
20037;BME280;10179;42.640;23.312;2024-02-21T09:17:16;94244.34;;;13.03;40.67
20037;BME280;10179;42.640;23.312;2024-02-21T09:19:42;94334.81;;;13.64;40.69
20037;BME280;10179;42.640;23.312;2024-02-21T09:22:07;94332.16;;;13.52;40.97
20037;BME280;10179;42.640;23.312;2024-02-21T09:24:33;94355.03;;;13.40;41.07
20037;BME280;10179;42.640;23.312;2024-02-21T09:26:58;94332.88;;;13.29;41.19
20037;BME280;10179;42.640;23.312;2024-02-21T09:29:25;94329.31;;;13.24;41.30
20037;BME280;10179;42.640;23.312;2024-02-21T09:31:50;94285.56;;;12.86;41.55
20037;BME280;10179;42.640;23.312;2024-02-21T09:34:16;94251.63;;;12.59;41.72
20037;BME280;10179;42.640;23.312;2024-02-21T09:36:41;94294.41;;;12.73;41.82
20037;BME280;10179;42.640;23.312;2024-02-21T09:39:07;94336.50;;;12.98;42.01
20037;BME280;10179;42.640;23.312;2024-02-21T09:41:36;94287.44;;;12.67;41.50
20037;BME280;10179;42.640;23.312;2024-02-21T09:44:06;94342.47;;;13.05;41.86
20037;BME280;10179;42.640;23.312;2024-02-21T09:46:57;94268.81;;;12.62;41.81
20037;BME280;10179;42.640;23.312;2024-02-21T09:49:30;94334.44;;;13.00;42.12
20037;BME280;10179;42.640;23.312;2024-02-21T09:52:01;94336.38;;;12.93;41.91
20037;BME280;10179;42.640;23.312;2024-02-21T09:54:30;94335.31;;;12.94;42.37
20037;BME280;10179;42.640;23.312;2024-02-21T09:57:03;94334.00;;;13.03;42.87
20037;BME280;10179;42.640;23.312;2024-02-21T09:59:31;94257.91;;;12.58;43.14
20037;BME280;10179;42.640;23.312;2024-02-21T10:01:56;94293.38;;;12.93;42.67
20037;BME280;10179;42.640;23.312;2024-02-21T10:04:22;94278.09;;;12.83;42.82
20037;BME280;10179;42.640;23.312;2024-02-21T10:06:47;94311.91;;;13.16;42.10
20037;BME280;10179;42.640;23.312;2024-02-21T10:09:23;94305.13;;;13.08;41.62
20037;BME280;10179;42.640;23.312;2024-02-21T10:11:50;94336.47;;;13.35;41.24
20037;BME280;10179;42.640;23.312;2024-02-21T10:14:16;94289.75;;;13.24;40.90
20037;BME280;10179;42.640;23.312;2024-02-21T10:16:42;94233.34;;;13.06;40.95
20037;BME280;10179;42.640;23.312;2024-02-21T10:19:17;94280.97;;;13.53;40.13
20037;BME280;10179;42.640;23.312;2024-02-21T10:21:42;94317.16;;;13.88;39.79
20037;BME280;10179;42.640;23.312;2024-02-21T10:24:08;94281.25;;;13.87;39.54
20037;BME280;10179;42.640;23.312;2024-02-21T10:26:33;94318.56;;;14.26;38.20
20037;BME280;10179;42.640;23.312;2024-02-21T10:29:01;94141.22;;;13.35;37.66
20037;BME280;10179;42.640;23.312;2024-02-21T10:31:28;94313.47;;;14.48;37.71
20037;BME280;10179;42.640;23.312;2024-02-21T10:33:54;94294.31;;;14.52;37.31
20037;BME280;10179;42.640;23.312;2024-02-21T10:36:20;94279.38;;;14.46;37.28
20037;BME280;10179;42.640;23.312;2024-02-21T10:38:45;93969.44;;;12.49;37.33
20037;BME280;10179;42.640;23.312;2024-02-21T10:41:13;94205.66;;;14.09;37.08
20037;BME280;10179;42.640;23.312;2024-02-21T10:43:40;94269.50;;;14.53;37.20
20037;BME280;10179;42.640;23.312;2024-02-21T10:46:08;94208.59;;;14.25;36.97
20037;BME280;10179;42.640;23.312;2024-02-21T10:48:42;94247.06;;;14.56;36.63
20037;BME280;10179;42.640;23.312;2024-02-21T10:53:44;94269.75;;;14.80;36.13
20037;BME280;10179;42.640;23.312;2024-02-21T10:56:29;94252.28;;;14.79;36.10
20037;BME280;10179;42.640;23.312;2024-02-21T10:58:57;94228.34;;;14.58;36.20
20037;BME280;10179;42.640;23.312;2024-02-21T11:01:23;94187.97;;;14.22;36.21
20037;BME280;10179;42.640;23.312;2024-02-21T11:03:51;94244.28;;;14.74;36.42
20037;BME280;10179;42.640;23.312;2024-02-21T11:06:20;94242.38;;;14.87;36.23
20037;BME280;10179;42.640;23.312;2024-02-21T11:08:47;94199.06;;;14.76;35.56
20037;BME280;10179;42.640;23.312;2024-02-21T11:11:13;94228.59;;;15.01;34.70
20037;BME280;10179;42.640;23.312;2024-02-21T11:13:43;94220.50;;;14.91;34.16
20037;BME280;10179;42.640;23.312;2024-02-21T11:16:11;94138.53;;;14.34;35.24
20037;BME280;10179;42.640;23.312;2024-02-21T11:18:39;94275.47;;;14.89;35.65
20037;BME280;10179;42.640;23.312;2024-02-21T11:21:05;94236.84;;;14.88;35.55
20037;BME280;10179;42.640;23.312;2024-02-21T11:23:31;94263.09;;;15.07;34.91
20037;BME280;10179;42.640;23.312;2024-02-21T11:26:10;94223.59;;;15.17;34.10
20037;BME280;10179;42.640;23.312;2024-02-21T11:28:36;94230.75;;;15.16;33.55
20037;BME280;10179;42.640;23.312;2024-02-21T11:31:11;94227.84;;;15.18;33.40
20037;BME280;10179;42.640;23.312;2024-02-21T11:33:42;94226.88;;;15.07;34.10
20037;BME280;10179;42.640;23.312;2024-02-21T11:36:09;94117.38;;;14.34;34.81
20037;BME280;10179;42.640;23.312;2024-02-21T11:38:35;94229.25;;;15.09;34.81
20037;BME280;10179;42.640;23.312;2024-02-21T11:41:00;94219.81;;;15.13;34.37
20037;BME280;10179;42.640;23.312;2024-02-21T11:43:26;94105.28;;;14.38;34.07
20037;BME280;10179;42.640;23.312;2024-02-21T11:45:59;94230.75;;;15.16;33.97
20037;BME280;10179;42.640;23.312;2024-02-21T11:48:25;94219.00;;;15.12;33.71
20037;BME280;10179;42.640;23.312;2024-02-21T11:50:55;94154.19;;;14.81;34.35
20037;BME280;10179;42.640;23.312;2024-02-21T11:53:21;94210.09;;;15.01;34.36
20037;BME280;10179;42.640;23.312;2024-02-21T11:55:46;94205.66;;;14.90;34.66
20037;BME280;10179;42.640;23.312;2024-02-21T11:58:12;94203.50;;;14.87;34.83
20037;BME280;10179;42.640;23.312;2024-02-21T12:00:37;94204.22;;;14.83;35.01
20037;BME280;10179;42.640;23.312;2024-02-21T12:03:04;94158.94;;;14.50;34.99
20037;BME280;10179;42.640;23.312;2024-02-21T12:05:30;94152.38;;;14.41;35.25
20037;BME280;10179;42.640;23.312;2024-02-21T12:07:56;94203.88;;;14.79;34.92
20037;BME280;10179;42.640;23.312;2024-02-21T12:10:25;94144.13;;;14.38;34.62
20037;BME280;10179;42.640;23.312;2024-02-21T12:12:51;94175.72;;;14.44;34.71
20037;BME280;10179;42.640;23.312;2024-02-21T12:15:18;94135.84;;;14.05;34.84
20037;BME280;10179;42.640;23.312;2024-02-21T12:17:44;94193.41;;;14.55;35.03
20037;BME280;10179;42.640;23.312;2024-02-21T12:20:10;94111.50;;;14.03;35.00
20037;BME280;10179;42.640;23.312;2024-02-21T12:22:37;94130.88;;;14.21;35.01
20037;BME280;10179;42.640;23.312;2024-02-21T12:25:04;94185.72;;;14.54;35.18
20037;BME280;10179;42.640;23.312;2024-02-21T12:27:33;94186.97;;;14.51;35.55
20037;BME280;10179;42.640;23.312;2024-02-21T12:29:58;94181.94;;;14.50;36.05
20037;BME280;10179;42.640;23.312;2024-02-21T12:32:24;94156.94;;;14.29;36.26
20037;BME280;10179;42.640;23.312;2024-02-21T12:34:50;94186.09;;;14.34;35.82
20037;BME280;10179;42.640;23.312;2024-02-21T12:37:15;93936.22;;;12.48;36.09
20037;BME280;10179;42.640;23.312;2024-02-21T12:39:41;94183.81;;;14.26;35.88
20037;BME280;10179;42.640;23.312;2024-02-21T12:42:07;94173.50;;;14.13;36.20
20037;BME280;10179;42.640;23.312;2024-02-21T12:44:34;94150.91;;;13.93;36.58
20037;BME280;10179;42.640;23.312;2024-02-21T12:46:59;94186.41;;;13.97;36.85
20037;BME280;10179;42.640;23.312;2024-02-21T12:49:25;94175.56;;;14.11;36.82
20037;BME280;10179;42.640;23.312;2024-02-21T12:51:52;94176.38;;;14.11;36.83
20037;BME280;10179;42.640;23.312;2024-02-21T12:54:18;94184.66;;;14.15;36.87
20037;BME280;10179;42.640;23.312;2024-02-21T12:56:43;94170.41;;;14.16;36.72